Time,TemperatureF,DewpointF,PressureIn,WindDirection,WindDirectionDegrees,WindSpeedMPH,WindSpeedGustMPH,Humidity,HourlyPrecipIn,Conditions,Clouds,dailyrainin,SolarRadiationWatts/m^2,SoftwareType,DateUTC
2013-04-03 00:04:00,39.7,39.0,29.62,NNE,22,8.1,8.1,97,0.06,RA,,0.42,0.0,WeatherDisplay:10.37,2013-04-02 22:04:00,
2013-04-03 00:09:00,39.7,39.0,29.62,NE,45,10.4,10.4,97,0.07,RA,,0.43,0.0,WeatherDisplay:10.37,2013-04-02 22:09:00,
2013-04-03 00:14:00,39.7,39.0,29.62,WSW,248,9.2,9.2,97,0.06,RA,,0.44,0.0,WeatherDisplay:10.37,2013-04-02 22:14:00,
2013-04-03 00:19:00,39.7,39.0,29.59,ENE,68,8.1,8.1,97,0.07,RA,,0.44,0.0,WeatherDisplay:10.37,2013-04-02 22:19:00,
2013-04-03 00:24:00,39.7,39.0,29.59,ENE,68,6.9,6.9,97,0.07,RA,,0.45,0.0,WeatherDisplay:10.37,2013-04-02 22:24:00,
2013-04-03 00:29:00,39.6,38.8,29.59,NNW,338,12.7,12.7,97,0.08,RA,,0.46,0.0,WeatherDisplay:10.37,2013-04-02 22:29:00,
2013-04-03 00:34:00,39.6,38.8,29.62,North,0,11.5,11.5,97,0.08,RA,,0.46,0.0,WeatherDisplay:10.37,2013-04-02 22:34:00,
2013-04-03 00:39:00,39.4,38.6,29.62,North,0,9.2,9.2,97,0.08,RA,,0.47,0.0,WeatherDisplay:10.37,2013-04-02 22:39:00,
2013-04-03 00:44:00,39.4,38.6,29.62,ENE,68,8.1,8.1,97,0.08,RA,,0.47,0.0,WeatherDisplay:10.37,2013-04-02 22:44:00,
2013-04-03 00:49:00,39.4,38.9,29.62,NNE,22,8.1,8.1,98,0.08,RA,,0.47,0.0,WeatherDisplay:10.37,2013-04-02 22:49:00,
2013-04-03 00:54:00,39.4,38.9,29.62,ENE,68,6.0,6.0,98,0.07,RA,,0.48,0.0,WeatherDisplay:10.37,2013-04-02 22:54:00,
2013-04-03 00:59:00,39.4,38.9,29.62,NNW,338,8.1,8.1,98,0.07,RA,,0.48,0.0,WeatherDisplay:10.37,2013-04-02 22:59:00,
2013-04-03 01:04:00,39.4,38.9,29.62,WNW,292,3.5,4.7,98,0.06,RA,,0.49,0.0,WeatherDisplay:10.37,2013-04-02 23:04:00,
2013-04-03 01:09:00,39.4,38.9,29.62,NNE,22,4.6,4.6,98,0.05,RA,,0.49,0.0,WeatherDisplay:10.37,2013-04-02 23:09:00,
2013-04-03 01:14:00,39.4,38.9,29.62,NNE,22,4.5,4.5,98,0.05,RA,,0.49,0.0,WeatherDisplay:10.37,2013-04-02 23:14:00,
2013-04-03 01:19:00,39.4,38.9,29.62,WNW,292,6.9,6.9,98,0.05,RA,,0.49,0.0,WeatherDisplay:10.37,2013-04-02 23:19:00,
2013-04-03 01:24:00,39.4,38.9,29.62,NNW,338,6.9,6.9,98,0.04,CLR,,0.49,0.0,WeatherDisplay:10.37,2013-04-02 23:24:00,
2013-04-03 01:29:00,39.4,38.9,29.62,East,90,5.8,5.8,98,0.04,RA,,0.50,0.0,WeatherDisplay:10.37,2013-04-02 23:29:00,
2013-04-03 01:34:00,39.4,38.9,29.62,NNW,338,4.6,4.6,98,0.04,RA,,0.50,0.0,WeatherDisplay:10.37,2013-04-02 23:34:00,
2013-04-03 01:39:00,39.4,38.9,29.62,North,0,9.2,9.2,98,0.04,RA,,0.51,0.0,WeatherDisplay:10.37,2013-04-02 23:39:00,
2013-04-03 01:44:00,39.4,38.9,29.62,ENE,68,8.1,8.1,98,0.04,RA,,0.52,0.0,WeatherDisplay:10.37,2013-04-02 23:44:00,
2013-04-03 01:49:00,39.4,38.9,29.62,NNW,338,8.1,8.1,98,0.05,RA,,0.52,0.0,WeatherDisplay:10.37,2013-04-02 23:49:00,
2013-04-03 01:54:00,39.4,38.9,29.62,South,180,9.8,9.8,98,0.05,RA,,0.53,0.0,WeatherDisplay:10.37,2013-04-02 23:54:00,
2013-04-03 01:59:00,39.4,38.9,29.62,NNE,22,7.1,7.1,98,0.05,RA,,0.53,0.0,WeatherDisplay:10.37,2013-04-02 23:59:00,
2013-04-03 02:04:00,39.4,38.9,29.62,NNE,22,8.1,8.1,98,0.05,RA,,0.54,0.0,WeatherDisplay:10.37,2013-04-03 00:04:00,
2013-04-03 02:09:00,39.4,38.9,29.62,North,0,5.4,5.4,98,0.05,RA,,0.54,0.0,WeatherDisplay:10.37,2013-04-03 00:09:00,
2013-04-03 02:14:00,39.4,38.9,29.62,NNE,22,6.9,6.9,98,0.05,RA,,0.55,0.0,WeatherDisplay:10.37,2013-04-03 00:14:00,
2013-04-03 02:19:00,39.4,38.9,29.59,NNE,22,4.6,4.6,98,0.06,RA,,0.55,0.0,WeatherDisplay:10.37,2013-04-03 00:19:00,
2013-04-03 02:24:00,39.4,38.9,29.59,ENE,68,2.3,2.3,98,0.06,RA,,0.56,0.0,WeatherDisplay:10.37,2013-04-03 00:24:00,
2013-04-03 02:29:00,39.4,38.9,29.59,NNE,22,8.1,8.1,98,0.07,RA,,0.56,0.0,WeatherDisplay:10.37,2013-04-03 00:29:00,
2013-04-03 02:34:00,39.4,38.9,29.59,NNE,22,6.9,6.9,98,0.06,RA,,0.56,0.0,WeatherDisplay:10.37,2013-04-03 00:34:00,
2013-04-03 02:39:00,39.4,38.9,29.59,NE,45,8.1,8.1,98,0.06,RA,,0.57,0.0,WeatherDisplay:10.37,2013-04-03 00:39:00,
2013-04-03 02:44:00,39.4,38.9,29.59,NNW,338,4.7,4.7,98,0.05,RA,,0.57,0.0,WeatherDisplay:10.37,2013-04-03 00:44:00,
2013-04-03 02:49:00,39.4,38.9,29.59,NNE,22,8.1,8.1,98,0.05,RA,,0.57,0.0,WeatherDisplay:10.37,2013-04-03 00:49:00,
2013-04-03 02:55:00,39.4,38.9,29.59,NNE,22,9.2,9.2,98,0.05,RA,,0.58,0.0,WeatherDisplay:10.37,2013-04-03 00:55:00,
2013-04-03 03:00:00,39.4,38.9,29.59,ENE,68,6.4,6.4,98,0.05,RA,,0.59,0.0,WeatherDisplay:10.37,2013-04-03 01:00:00,
2013-04-03 03:05:00,39.4,38.9,29.59,NNE,22,5.8,5.8,98,0.06,RA,,0.60,0.0,WeatherDisplay:10.37,2013-04-03 01:05:00,
2013-04-03 03:10:00,39.4,38.9,29.59,NNE,22,6.9,6.9,98,0.06,RA,,0.60,0.0,WeatherDisplay:10.37,2013-04-03 01:10:00,
2013-04-03 03:15:00,39.4,38.9,29.59,NNE,22,6.9,6.9,98,0.05,RA,,0.60,0.0,WeatherDisplay:10.37,2013-04-03 01:15:00,
2013-04-03 03:20:00,39.4,38.9,29.65,NNE,22,5.9,5.9,98,0.05,RA,,0.60,0.0,WeatherDisplay:10.37,2013-04-03 01:20:00,
2013-04-03 03:25:00,39.4,38.9,29.65,NNE,22,10.4,10.4,98,0.05,RA,,0.61,0.0,WeatherDisplay:10.37,2013-04-03 01:25:00,
2013-04-03 03:30:00,39.4,38.9,29.65,NNE,22,6.9,6.9,98,0.05,RA,,0.61,0.0,WeatherDisplay:10.37,2013-04-03 01:30:00,
2013-04-03 03:35:00,39.6,39.0,29.65,ENE,68,5.8,5.8,98,0.05,RA,,0.62,0.0,WeatherDisplay:10.37,2013-04-03 01:35:00,
2013-04-03 03:40:00,39.6,39.0,29.65,ENE,68,5.9,5.9,98,0.05,RA,,0.62,0.0,WeatherDisplay:10.37,2013-04-03 01:40:00,
2013-04-03 03:45:00,39.6,39.0,29.65,WNW,292,6.9,6.9,98,0.05,RA,,0.62,0.0,WeatherDisplay:10.37,2013-04-03 01:45:00,
2013-04-03 03:50:00,39.6,39.0,29.65,North,0,8.1,8.1,98,0.05,RA,,0.63,0.0,WeatherDisplay:10.37,2013-04-03 01:50:00,
2013-04-03 03:55:00,39.6,39.0,29.65,ENE,68,8.1,8.1,98,0.05,RA,,0.64,0.0,WeatherDisplay:10.37,2013-04-03 01:55:00,
2013-04-03 04:00:00,39.6,39.0,29.65,NNW,338,4.6,4.6,98,0.05,RA,,0.64,0.0,WeatherDisplay:10.37,2013-04-03 02:00:00,
2013-04-03 04:05:00,39.6,39.0,29.65,NNW,338,9.2,9.2,98,0.05,RA,,0.65,0.0,WeatherDisplay:10.37,2013-04-03 02:05:00,
2013-04-03 04:10:00,39.6,39.0,29.65,ESE,112,4.6,4.6,98,0.05,RA,,0.65,0.0,WeatherDisplay:10.37,2013-04-03 02:10:00,
2013-04-03 04:15:00,39.7,39.2,29.65,NNE,22,6.9,6.9,98,0.05,RA,,0.65,0.0,WeatherDisplay:10.37,2013-04-03 02:15:00,
2013-04-03 04:20:00,39.7,39.2,29.62,North,0,5.8,5.8,98,0.05,CLR,,0.65,0.0,WeatherDisplay:10.37,2013-04-03 02:20:00,
2013-04-03 04:25:00,39.7,39.2,29.62,NNE,22,4.6,4.6,98,0.04,CLR,,0.65,0.0,WeatherDisplay:10.37,2013-04-03 02:25:00,
2013-04-03 04:30:00,39.7,39.2,29.62,NNW,338,5.8,5.8,98,0.04,CLR,,0.65,0.0,WeatherDisplay:10.37,2013-04-03 02:30:00,
2013-04-03 04:36:00,39.7,39.2,29.62,NNE,22,3.5,3.5,98,0.04,CLR,,0.65,0.0,WeatherDisplay:10.37,2013-04-03 02:36:00,
2013-04-03 04:41:00,39.7,39.2,29.62,NNW,338,4.6,4.6,98,0.03,CLR,,0.65,0.0,WeatherDisplay:10.37,2013-04-03 02:41:00,
2013-04-03 04:47:00,39.7,39.2,29.62,NNE,22,3.5,3.5,98,0.02,CLR,,0.65,0.0,WeatherDisplay:10.37,2013-04-03 02:47:00,
2013-04-03 04:52:00,39.7,39.2,29.62,North,0,2.4,2.6,98,0.03,RA,,0.66,0.0,WeatherDisplay:10.37,2013-04-03 02:52:00,
2013-04-03 04:57:00,39.7,39.2,29.62,NNW,338,4.6,4.6,98,0.02,RA,,0.66,0.0,WeatherDisplay:10.37,2013-04-03 02:57:00,
2013-04-03 05:03:00,39.7,39.2,29.65,NNW,338,3.5,3.5,98,0.01,RA,,0.66,0.0,WeatherDisplay:10.37,2013-04-03 03:03:00,
2013-04-03 05:08:00,39.7,39.2,29.65,WNW,292,2.6,2.6,98,0.01,,,0.66,0.0,WeatherDisplay:10.37,2013-04-03 03:08:00,
2013-04-03 05:13:00,39.9,39.4,29.65,NNW,338,2.3,2.3,98,0.01,CLR,,0.66,0.0,WeatherDisplay:10.37,2013-04-03 03:13:00,
2013-04-03 05:18:00,39.9,39.4,29.65,NW,315,1.6,1.6,98,0.01,CLR,,0.66,0.0,WeatherDisplay:10.37,2013-04-03 03:18:00,
2013-04-03 05:23:00,39.9,39.4,29.65,WNW,292,3.5,3.5,98,0.01,CLR,,0.66,0.0,WeatherDisplay:10.37,2013-04-03 03:23:00,
2013-04-03 05:28:00,39.9,39.4,29.65,NNW,338,0.0,0.0,98,0.01,CLR,,0.67,0.0,WeatherDisplay:10.37,2013-04-03 03:28:00,
2013-04-03 05:33:00,39.9,39.4,29.65,NNW,338,3.5,3.5,98,0.01,RA,,0.67,0.0,WeatherDisplay:10.37,2013-04-03 03:33:00,
2013-04-03 05:38:00,39.9,39.4,29.65,NNW,338,3.3,3.3,98,0.01,RA,,0.67,0.0,WeatherDisplay:10.37,2013-04-03 03:38:00,
2013-04-03 05:43:00,39.9,39.4,29.65,NNE,22,3.1,0.0,98,0.01,CLR,,0.67,0.0,WeatherDisplay:10.37,2013-04-03 03:43:00,
2013-04-03 05:49:00,39.9,39.4,29.65,WNW,292,1.2,0.0,98,0.01,CLR,,0.67,0.0,WeatherDisplay:10.37,2013-04-03 03:49:00,
2013-04-03 05:54:00,39.9,39.4,29.65,NNW,338,1.2,0.0,98,0.01,RA,,0.67,0.0,WeatherDisplay:10.37,2013-04-03 03:54:00,
2013-04-03 05:59:00,39.9,39.4,29.65,NNW,338,2.3,2.3,98,0.01,RA,,0.67,0.0,WeatherDisplay:10.37,2013-04-03 03:59:00,
2013-04-03 06:00:00,39.9,39.4,29.65,WNW,292,2.3,2.3,98,0.01,RA,,0.67,0.0,WeatherDisplay:10.37,2013-04-03 04:00:00,
2013-04-03 06:05:00,39.9,39.4,29.65,NNE,22,4.6,4.6,98,0.01,OVC,,0.67,0.0,WeatherDisplay:10.37,2013-04-03 04:05:00,
2013-04-03 06:10:00,39.7,39.2,29.65,NNW,338,2.4,2.4,98,0.01,OVC,,0.67,0.0,WeatherDisplay:10.37,2013-04-03 04:10:00,
2013-04-03 06:15:00,39.7,39.2,29.65,NW,315,3.5,3.5,98,0.01,OVC,,0.67,0.0,WeatherDisplay:10.37,2013-04-03 04:15:00,
2013-04-03 06:20:00,39.7,39.2,29.65,NNE,22,2.3,2.3,98,0.01,OVC,,0.67,0.0,WeatherDisplay:10.37,2013-04-03 04:20:00,
2013-04-03 06:25:00,39.7,39.2,29.65,NNW,338,1.2,1.4,98,0.01,RA,,0.67,0.0,WeatherDisplay:10.37,2013-04-03 04:25:00,
2013-04-03 06:30:00,39.7,39.2,29.65,NNE,22,2.3,0.0,98,0.01,RA,,0.67,0.0,WeatherDisplay:10.37,2013-04-03 04:30:00,
2013-04-03 06:35:00,39.7,39.2,29.59,NNE,22,3.5,3.5,98,0.01,OVC,,0.67,0.0,WeatherDisplay:10.37,2013-04-03 04:35:00,
2013-04-03 06:40:00,39.7,39.2,29.59,NNW,338,3.5,3.5,98,0.01,OVC,,0.67,2.0,WeatherDisplay:10.37,2013-04-03 04:40:00,
2013-04-03 06:45:00,39.7,39.2,29.59,NNW,338,3.8,3.8,98,0.01,OVC,,0.67,4.6,WeatherDisplay:10.37,2013-04-03 04:45:00,
2013-04-03 06:50:00,39.7,39.2,29.59,NNW,338,4.6,4.6,98,0.01,OVC,,0.67,7.3,WeatherDisplay:10.37,2013-04-03 04:50:00,
2013-04-03 06:55:00,39.7,39.2,29.59,NNW,338,2.9,2.9,98,0.00,OVC,,0.67,9.7,WeatherDisplay:10.37,2013-04-03 04:55:00,
2013-04-03 07:00:00,39.7,39.2,29.59,NNE,22,2.9,2.9,98,0.00,OVC,,0.67,12.5,WeatherDisplay:10.37,2013-04-03 05:00:00,
2013-04-03 07:05:00,39.7,39.2,29.62,NNW,338,4.6,4.6,98,0.00,OVC,,0.67,15.2,WeatherDisplay:10.37,2013-04-03 05:05:00,
2013-04-03 07:10:00,39.7,39.2,29.62,NNE,22,3.5,3.5,98,0.00,OVC,,0.67,17.8,WeatherDisplay:10.37,2013-04-03 05:10:00,
2013-04-03 07:15:00,39.7,39.2,29.62,NNE,22,3.5,3.5,98,0.00,OVC,,0.67,20.5,WeatherDisplay:10.37,2013-04-03 05:15:00,
2013-04-03 07:20:00,39.7,39.2,29.59,NNW,338,4.6,4.6,98,0.00,OVC,,0.68,23.3,WeatherDisplay:10.37,2013-04-03 05:20:00,
2013-04-03 07:25:00,39.7,39.2,29.59,NNE,22,3.6,3.6,98,0.00,RA,,0.68,25.9,WeatherDisplay:10.37,2013-04-03 05:25:00,
2013-04-03 07:30:00,39.7,39.2,29.59,NNE,22,3.5,3.5,98,0.00,RA,,0.68,28.7,WeatherDisplay:10.37,2013-04-03 05:30:00,
2013-04-03 07:35:00,39.7,39.2,29.62,NNW,338,2.3,2.3,98,0.00,OVC,,0.68,31.4,WeatherDisplay:10.37,2013-04-03 05:35:00,
2013-04-03 07:40:00,39.9,39.4,29.62,NNW,338,2.3,2.4,98,0.00,OVC,,0.68,34.2,WeatherDisplay:10.37,2013-04-03 05:40:00,
2013-04-03 07:45:00,39.7,39.2,29.62,NW,315,1.2,0.0,98,0.00,OVC,,0.68,37.0,WeatherDisplay:10.37,2013-04-03 05:45:00,
2013-04-03 07:50:00,39.7,39.2,29.62,North,0,3.5,3.5,98,0.00,OVC,,0.68,39.8,WeatherDisplay:10.37,2013-04-03 05:50:00,
2013-04-03 07:55:00,39.7,39.2,29.62,NNE,22,3.5,3.5,98,0.00,OVC,,0.68,42.4,WeatherDisplay:10.37,2013-04-03 05:55:00,
2013-04-03 08:00:00,39.7,39.2,29.62,NNE,22,3.5,3.5,98,0.00,RA,,0.00,45.4,WeatherDisplay:10.37,2013-04-03 06:00:00,
2013-04-03 08:05:00,39.7,39.2,29.62,NNW,338,2.9,2.9,98,0.01,RA,,0.00,48.0,WeatherDisplay:10.37,2013-04-03 06:05:00,
2013-04-03 08:10:00,39.7,39.2,29.62,NNW,338,3.8,3.8,98,0.01,RA,,0.00,50.8,WeatherDisplay:10.37,2013-04-03 06:10:00,
2013-04-03 08:15:00,39.7,39.2,29.62,NNE,22,4.6,4.6,98,0.01,OVC,,0.00,53.6,WeatherDisplay:10.37,2013-04-03 06:15:00,
2013-04-03 08:20:00,39.7,39.2,29.62,NNE,22,4.6,4.6,98,0.01,OVC,,0.00,56.4,WeatherDisplay:10.37,2013-04-03 06:20:00,
2013-04-03 08:25:00,39.7,39.2,29.62,NNE,22,5.6,5.6,98,0.01,RA,,0.01,59.2,WeatherDisplay:10.37,2013-04-03 06:25:00,
2013-04-03 08:31:00,39.9,39.4,29.62,NE,45,4.6,4.6,98,0.01,RA,,0.01,62.5,WeatherDisplay:10.37,2013-04-03 06:31:00,
2013-04-03 08:36:00,39.9,39.4,29.62,NNE,22,4.6,4.6,98,0.01,OVC,,0.01,65.2,WeatherDisplay:10.37,2013-04-03 06:36:00,
2013-04-03 08:41:00,39.9,39.4,29.62,NNE,22,3.5,3.5,98,0.01,RA,,0.01,67.5,WeatherDisplay:10.37,2013-04-03 06:41:00,
2013-04-03 08:46:00,39.9,39.4,29.62,NNE,22,4.6,4.6,98,0.01,RA,,0.01,70.1,WeatherDisplay:10.37,2013-04-03 06:46:00,
2013-04-03 08:51:00,39.9,39.4,29.65,NNW,338,3.5,3.5,98,0.01,OVC,,0.01,73.4,WeatherDisplay:10.37,2013-04-03 06:51:00,
2013-04-03 08:56:00,40.1,39.6,29.65,NNW,338,3.1,3.1,98,0.01,OVC,,0.01,76.1,WeatherDisplay:10.37,2013-04-03 06:56:00,
2013-04-03 09:01:00,40.1,39.6,29.65,NNE,22,3.5,3.5,98,0.01,OVC,,0.01,78.9,WeatherDisplay:10.37,2013-04-03 07:01:00,
2013-04-03 09:06:00,40.1,39.6,29.65,NNE,22,2.3,2.3,98,0.01,OVC,,0.01,81.5,WeatherDisplay:10.37,2013-04-03 07:06:00,
2013-04-03 09:11:00,40.3,39.8,29.65,NNW,338,3.5,3.5,98,0.01,RA,,0.02,84.2,WeatherDisplay:10.37,2013-04-03 07:11:00,
2013-04-03 09:16:00,40.3,39.8,29.65,NNW,338,2.6,2.6,98,0.01,RA,,0.02,86.6,WeatherDisplay:10.37,2013-04-03 07:16:00,
2013-04-03 09:21:00,40.3,39.8,29.65,NNE,22,5.8,5.8,98,0.01,OVC,,0.02,89.3,WeatherDisplay:10.37,2013-04-03 07:21:00,
2013-04-03 09:26:00,40.3,39.8,29.65,NNW,338,4.6,4.6,98,0.01,OVC,,0.02,91.9,WeatherDisplay:10.37,2013-04-03 07:26:00,
2013-04-03 09:31:00,40.5,39.9,29.65,NNW,338,3.5,3.5,98,0.01,OVC,,0.02,94.4,WeatherDisplay:10.37,2013-04-03 07:31:00,
2013-04-03 09:36:00,40.5,39.9,29.65,NNW,338,3.5,3.5,98,0.01,OVC,,0.02,96.9,WeatherDisplay:10.37,2013-04-03 07:36:00,
2013-04-03 09:42:00,40.5,39.9,29.65,WNW,292,3.5,3.5,98,0.01,OVC,,0.02,99.8,WeatherDisplay:10.37,2013-04-03 07:42:00,
2013-04-03 09:47:00,40.5,39.9,29.68,NE,45,2.2,0.0,98,0.01,OVC,,0.02,102.3,WeatherDisplay:10.37,2013-04-03 07:47:00,
2013-04-03 09:52:00,40.6,40.1,29.68,East,90,3.5,3.5,98,0.01,OVC,,0.02,104.6,WeatherDisplay:10.37,2013-04-03 07:52:00,
2013-04-03 09:57:00,40.6,40.1,29.68,NNE,22,4.6,4.6,98,0.01,OVC,,0.02,107.1,WeatherDisplay:10.37,2013-04-03 07:57:00,
2013-04-03 10:02:00,40.6,40.1,29.68,NNE,22,3.5,3.5,98,0.01,OVC,,0.02,109.4,WeatherDisplay:10.37,2013-04-03 08:02:00,
2013-04-03 10:07:00,40.8,40.3,29.68,East,90,3.5,3.5,98,0.01,OVC,,0.02,111.7,WeatherDisplay:10.37,2013-04-03 08:07:00,
2013-04-03 10:12:00,40.8,40.3,29.68,North,0,3.8,3.8,98,0.00,RA,,0.02,113.8,WeatherDisplay:10.37,2013-04-03 08:12:00,
2013-04-03 10:17:00,41.0,40.5,29.68,NW,315,2.3,0.0,98,0.00,RA,,0.02,116.2,WeatherDisplay:10.37,2013-04-03 08:17:00,
2013-04-03 10:22:00,41.2,40.7,29.68,WNW,292,3.5,3.5,98,0.00,OVC,,0.02,118.3,WeatherDisplay:10.37,2013-04-03 08:22:00,
2013-04-03 10:28:00,41.2,40.7,29.68,NNE,22,3.5,3.5,98,0.00,OVC,,0.02,120.8,WeatherDisplay:10.37,2013-04-03 08:28:00,
2013-04-03 10:33:00,41.4,40.8,29.68,NNE,22,4.6,4.6,98,0.00,OVC,,0.02,122.8,WeatherDisplay:10.37,2013-04-03 08:33:00,
2013-04-03 10:38:00,41.5,41.0,29.68,NNW,338,3.5,3.5,98,0.00,OVC,,0.02,124.7,WeatherDisplay:10.37,2013-04-03 08:38:00,
2013-04-03 10:43:00,41.7,41.2,29.68,NNE,22,4.0,4.0,98,0.01,RA,,0.02,126.7,WeatherDisplay:10.37,2013-04-03 08:43:00,
2013-04-03 10:48:00,41.7,41.2,29.68,NNW,338,3.5,3.5,98,0.01,RA,,0.02,128.7,WeatherDisplay:10.37,2013-04-03 08:48:00,
2013-04-03 10:53:00,41.9,41.4,29.68,NNE,22,4.6,4.6,98,0.01,OVC,,0.02,130.5,WeatherDisplay:10.37,2013-04-03 08:53:00,
2013-04-03 10:58:00,41.7,41.2,29.68,NNW,338,4.6,4.6,98,0.01,OVC,,0.02,132.2,WeatherDisplay:10.37,2013-04-03 08:58:00,
2013-04-03 11:03:00,42.1,41.6,29.68,NNW,338,4.3,4.3,98,0.01,OVC,,0.02,133.7,WeatherDisplay:10.37,2013-04-03 09:03:00,
2013-04-03 11:08:00,42.1,41.6,29.68,NE,45,5.8,5.8,98,0.01,OVC,,0.02,135.6,WeatherDisplay:10.37,2013-04-03 09:08:00,
2013-04-03 11:13:00,41.9,41.4,29.68,NNW,338,3.5,3.5,98,0.00,OVC,,0.02,137.3,WeatherDisplay:10.37,2013-04-03 09:13:00,
2013-04-03 11:18:00,42.1,41.6,29.71,NNE,22,5.8,5.8,98,0.00,OVC,,0.02,138.8,WeatherDisplay:10.37,2013-04-03 09:18:00,
2013-04-03 11:23:00,42.3,41.7,29.71,NNW,338,2.3,2.3,98,0.00,OVC,,0.02,140.3,WeatherDisplay:10.37,2013-04-03 09:23:00,
2013-04-03 11:28:00,42.4,41.9,29.71,NNW,338,4.0,4.0,98,0.00,OVC,,0.02,141.6,WeatherDisplay:10.37,2013-04-03 09:28:00,
2013-04-03 11:33:00,42.3,41.7,29.71,WSW,248,4.6,4.6,98,0.00,OVC,,0.02,143.1,WeatherDisplay:10.37,2013-04-03 09:33:00,
2013-04-03 11:38:00,42.4,41.9,29.71,WNW,292,2.4,2.4,98,0.00,OVC,,0.02,144.2,WeatherDisplay:10.37,2013-04-03 09:38:00,
2013-04-03 11:43:00,42.4,41.9,29.71,North,0,2.3,2.3,98,0.00,OVC,,0.02,145.5,WeatherDisplay:10.37,2013-04-03 09:43:00,
2013-04-03 11:48:00,42.4,41.9,29.71,WSW,248,2.3,2.3,98,0.00,OVC,,0.02,146.7,WeatherDisplay:10.37,2013-04-03 09:48:00,
2013-04-03 11:53:00,42.4,41.9,29.71,North,0,5.8,5.8,98,0.00,OVC,,0.02,147.7,WeatherDisplay:10.37,2013-04-03 09:53:00,
2013-04-03 11:58:00,42.4,41.9,29.71,NNE,22,4.0,4.0,98,0.00,OVC,,0.02,148.7,WeatherDisplay:10.37,2013-04-03 09:58:00,
2013-04-03 12:03:00,42.6,42.1,29.68,NNW,338,3.5,3.5,98,0.00,OVC,,0.02,149.7,WeatherDisplay:10.37,2013-04-03 10:03:00,
2013-04-03 12:08:00,42.8,42.3,29.68,NNW,338,3.5,3.5,98,0.00,OVC,,0.02,150.5,WeatherDisplay:10.37,2013-04-03 10:08:00,
2013-04-03 12:13:00,42.8,42.3,29.68,NNE,22,4.6,4.6,98,0.00,OVC,,0.02,151.3,WeatherDisplay:10.37,2013-04-03 10:13:00,
2013-04-03 12:18:00,42.8,42.3,29.71,NNW,338,3.5,3.5,98,0.00,OVC,,0.02,152.1,WeatherDisplay:10.37,2013-04-03 10:18:00,
2013-04-03 12:23:00,42.8,42.3,29.71,NNW,338,3.5,3.5,98,0.00,OVC,,0.02,152.8,WeatherDisplay:10.37,2013-04-03 10:23:00,
2013-04-03 12:28:00,42.8,42.3,29.71,WNW,292,2.3,2.3,98,0.00,OVC,,0.02,153.3,WeatherDisplay:10.37,2013-04-03 10:28:00,
2013-04-03 12:33:00,42.8,42.3,29.65,North,0,2.3,2.3,98,0.00,OVC,,0.02,153.8,WeatherDisplay:10.37,2013-04-03 10:33:00,
2013-04-03 12:38:00,42.8,42.3,29.65,North,0,2.3,2.3,98,0.00,OVC,,0.02,154.3,WeatherDisplay:10.37,2013-04-03 10:38:00,
2013-04-03 12:43:00,42.8,42.3,29.65,NNW,338,3.1,3.1,98,0.00,OVC,,0.02,154.6,WeatherDisplay:10.37,2013-04-03 10:43:00,
2013-04-03 12:48:00,42.8,42.3,29.65,NNE,22,5.8,5.8,98,0.00,OVC,,0.02,154.8,WeatherDisplay:10.37,2013-04-03 10:48:00,
2013-04-03 12:53:00,42.8,42.3,29.65,NW,315,4.6,4.6,98,0.00,OVC,,0.02,155.1,WeatherDisplay:10.37,2013-04-03 10:53:00,
2013-04-03 12:58:00,42.8,42.3,29.65,WNW,292,4.6,4.6,98,0.00,OVC,,0.02,155.1,WeatherDisplay:10.37,2013-04-03 10:58:00,
2013-04-03 13:03:00,43.0,42.5,29.65,NNW,338,3.5,3.5,98,0.00,OVC,,0.02,155.3,WeatherDisplay:10.37,2013-04-03 11:03:00,
2013-04-03 13:08:00,43.0,42.5,29.65,NNW,338,4.6,4.6,98,0.00,OVC,,0.02,155.3,WeatherDisplay:10.37,2013-04-03 11:08:00,
2013-04-03 13:13:00,43.0,42.5,29.65,WNW,292,3.5,3.5,98,0.00,OVC,,0.02,155.1,WeatherDisplay:10.37,2013-04-03 11:13:00,
2013-04-03 13:18:00,43.0,42.5,29.71,NNW,338,5.8,5.8,98,0.00,OVC,,0.02,154.9,WeatherDisplay:10.37,2013-04-03 11:18:00,
2013-04-03 13:23:00,43.0,42.5,29.71,WNW,292,3.6,3.6,98,0.00,OVC,,0.02,154.8,WeatherDisplay:10.37,2013-04-03 11:23:00,
2013-04-03 13:28:00,43.0,42.5,29.71,NNE,22,3.5,3.6,98,0.00,OVC,,0.02,154.4,WeatherDisplay:10.37,2013-04-03 11:28:00,
2013-04-03 13:33:00,43.0,42.5,29.68,NNW,338,4.6,4.6,98,0.00,OVC,,0.02,153.9,WeatherDisplay:10.37,2013-04-03 11:33:00,
2013-04-03 13:38:00,43.0,42.5,29.68,WNW,292,4.6,4.6,98,0.00,OVC,,0.02,153.6,WeatherDisplay:10.37,2013-04-03 11:38:00,
2013-04-03 13:43:00,43.0,42.5,29.68,WNW,292,2.3,2.4,98,0.00,OVC,,0.02,153.0,WeatherDisplay:10.37,2013-04-03 11:43:00,
2013-04-03 13:48:00,43.2,42.6,29.65,NNW,338,3.6,3.6,98,0.00,OVC,,0.02,152.5,WeatherDisplay:10.37,2013-04-03 11:48:00,
2013-04-03 13:53:00,43.2,42.6,29.65,NNW,338,3.6,3.6,98,0.00,OVC,,0.02,151.6,WeatherDisplay:10.37,2013-04-03 11:53:00,
2013-04-03 13:58:00,43.0,42.5,29.65,WNW,292,3.3,3.3,98,0.00,OVC,,0.02,151.0,WeatherDisplay:10.37,2013-04-03 11:58:00,
2013-04-03 14:03:00,43.2,42.6,29.65,WNW,292,3.5,3.5,98,0.00,OVC,,0.02,150.2,WeatherDisplay:10.37,2013-04-03 12:03:00,
2013-04-03 14:08:00,43.2,42.6,29.65,NNW,338,4.6,4.6,98,0.00,OVC,,0.02,149.2,WeatherDisplay:10.37,2013-04-03 12:08:00,
2013-04-03 14:14:00,43.2,42.6,29.65,West,270,4.6,4.6,98,0.00,OVC,,0.02,148.3,WeatherDisplay:10.37,2013-04-03 12:14:00,
2013-04-03 14:19:00,43.2,42.6,29.65,NNE,22,5.8,5.8,98,0.00,OVC,,0.02,147.0,WeatherDisplay:10.37,2013-04-03 12:19:00,
2013-04-03 14:24:00,43.0,42.5,29.65,WSW,248,4.6,4.6,98,0.00,OVC,,0.02,145.9,WeatherDisplay:10.37,2013-04-03 12:24:00,
2013-04-03 14:29:00,43.0,42.5,29.65,North,0,4.6,4.6,98,0.00,OVC,,0.02,144.7,WeatherDisplay:10.37,2013-04-03 12:29:00,
2013-04-03 14:34:00,42.8,42.3,29.68,WNW,292,4.6,4.6,98,0.00,OVC,,0.02,143.4,WeatherDisplay:10.37,2013-04-03 12:34:00,
2013-04-03 14:39:00,43.0,42.5,29.68,WNW,292,3.5,3.5,98,0.00,OVC,,0.02,142.1,WeatherDisplay:10.37,2013-04-03 12:39:00,
2013-04-03 14:44:00,42.8,42.3,29.68,WNW,292,5.8,5.8,98,0.00,OVC,,0.02,140.7,WeatherDisplay:10.37,2013-04-03 12:44:00,
2013-04-03 14:49:00,42.8,42.3,29.68,NW,315,5.8,5.8,98,0.00,OVC,,0.02,139.3,WeatherDisplay:10.37,2013-04-03 12:49:00,
2013-04-03 14:54:00,42.8,42.3,29.68,NW,315,4.6,4.6,98,0.00,OVC,,0.02,137.6,WeatherDisplay:10.37,2013-04-03 12:54:00,
2013-04-03 14:59:00,42.8,42.3,29.68,NW,315,4.6,4.6,98,0.00,OVC,,0.02,136.1,WeatherDisplay:10.37,2013-04-03 12:59:00,
2013-04-03 15:04:00,42.8,42.3,29.68,NNE,22,5.8,5.8,98,0.00,OVC,,0.02,134.5,WeatherDisplay:10.37,2013-04-03 13:04:00,
2013-04-03 15:09:00,42.8,42.3,29.68,NNW,338,5.8,5.8,98,0.00,OVC,,0.02,132.8,WeatherDisplay:10.37,2013-04-03 13:09:00,
2013-04-03 15:14:00,43.0,42.5,29.68,NNW,338,4.6,4.6,98,0.00,OVC,,0.02,131.0,WeatherDisplay:10.37,2013-04-03 13:14:00,
2013-04-03 15:19:00,43.0,42.5,29.65,NNW,338,6.9,6.9,98,0.00,OVC,,0.02,129.2,WeatherDisplay:10.37,2013-04-03 13:19:00,
2013-04-03 15:24:00,42.8,42.3,29.65,West,270,5.8,5.8,98,0.00,OVC,,0.02,127.4,WeatherDisplay:10.37,2013-04-03 13:24:00,
2013-04-03 19:29:00,38.8,38.3,29.71,NNW,338,5.4,5.4,98,0.00,RA,,0.04,2.0,WeatherDisplay:10.37,2013-04-03 17:29:00,
2013-04-03 19:35:00,38.8,38.3,29.68,NNW,338,8.1,8.1,98,0.00,OVC,,0.04,0.5,WeatherDisplay:10.37,2013-04-03 17:35:00,
2013-04-03 19:40:00,38.7,38.1,29.68,West,270,5.8,5.8,98,0.00,OVC,,0.04,0.5,WeatherDisplay:10.37,2013-04-03 17:40:00,
2013-04-03 19:45:00,38.7,38.1,29.68,WNW,292,6.9,6.9,98,0.00,OVC,,0.04,0.5,WeatherDisplay:10.37,2013-04-03 17:45:00,
2013-04-03 19:50:00,38.7,38.1,29.71,NNW,338,4.6,4.6,98,0.00,CLR,,0.04,0.0,WeatherDisplay:10.37,2013-04-03 17:50:00,
2013-04-03 19:55:00,38.7,38.1,29.71,NNW,338,2.4,2.6,98,0.00,CLR,,0.04,0.0,WeatherDisplay:10.37,2013-04-03 17:55:00,
2013-04-03 20:00:00,38.5,38.0,29.71,WNW,292,5.8,5.8,98,0.00,CLR,,0.04,0.0,WeatherDisplay:10.37,2013-04-03 18:00:00,
2013-04-03 20:05:00,38.5,38.0,29.71,NNW,338,4.6,4.6,98,0.00,CLR,,0.04,0.0,WeatherDisplay:10.37,2013-04-03 18:05:00,
2013-04-03 20:10:00,38.5,38.0,29.71,WNW,292,5.8,5.8,98,0.00,CLR,,0.04,0.0,WeatherDisplay:10.37,2013-04-03 18:10:00,
2013-04-03 20:15:00,38.5,38.0,29.71,NNW,338,4.6,4.6,98,0.00,CLR,,0.04,0.0,WeatherDisplay:10.37,2013-04-03 18:15:00,
2013-04-03 20:21:00,38.5,38.0,29.71,WNW,292,5.8,5.8,98,0.00,CLR,,0.04,0.0,WeatherDisplay:10.37,2013-04-03 18:21:00,
2013-04-03 20:26:00,38.5,38.0,29.71,WNW,292,5.8,5.8,98,0.00,CLR,,0.04,0.0,WeatherDisplay:10.37,2013-04-03 18:26:00,
2013-04-03 20:31:00,38.3,37.8,29.71,NNW,338,4.6,4.6,98,0.00,CLR,,0.04,0.0,WeatherDisplay:10.37,2013-04-03 18:31:00,
2013-04-03 20:36:00,38.3,37.8,29.74,NNW,338,5.8,5.8,98,0.00,CLR,,0.04,0.0,WeatherDisplay:10.37,2013-04-03 18:36:00,